createdAt,value
2019-03-03T00:01:31.706Z,28.43
2019-03-03T00:03:57.860Z,26.60
2019-03-03T00:06:24.101Z,25.37
2019-03-03T00:08:50.346Z,26.60
2019-03-03T00:11:16.461Z,24.90
2019-03-03T00:13:42.567Z,25.13
2019-03-03T00:16:08.768Z,27.27
2019-03-03T00:18:34.920Z,25.47
2019-03-03T00:21:08.768Z,25.07
2019-03-03T00:23:36.886Z,28.17
2019-03-03T00:26:03.452Z,25.67
2019-03-03T00:28:29.671Z,22.33
2019-03-03T00:30:55.766Z,22.77
2019-03-03T00:33:22.138Z,22.90
2019-03-03T00:35:48.477Z,22.30
2019-03-03T00:38:19.496Z,24.33
2019-03-03T00:40:47.917Z,22.00
2019-03-03T00:43:18.942Z,24.50
2019-03-03T00:46:03.407Z,20.70
2019-03-03T00:48:38.365Z,27.07
2019-03-03T00:51:14.392Z,24.20
2019-03-03T00:53:59.290Z,27.37
2019-03-03T00:56:33.333Z,27.43
2019-03-03T00:59:10.475Z,30.37
2019-03-03T01:01:41.418Z,26.77
2019-03-03T01:04:18.350Z,25.23
2019-03-03T01:06:46.572Z,24.53
2019-03-03T01:09:38.943Z,28.20
2019-03-03T01:12:17.062Z,26.43
2019-03-03T01:14:48.184Z,25.70
2019-03-03T01:17:28.494Z,25.33
2019-03-03T01:19:59.637Z,27.20
2019-03-03T01:22:30.337Z,30.90
2019-03-03T01:24:56.601Z,27.83
2019-03-03T01:27:24.108Z,26.23
2019-03-03T01:29:50.409Z,26.57
2019-03-03T01:32:16.614Z,27.13
2019-03-03T01:34:42.778Z,31.33
2019-03-03T01:37:08.991Z,24.10
2019-03-03T01:39:35.494Z,25.70
2019-03-03T01:42:02.603Z,23.70
2019-03-03T01:44:28.802Z,26.83
2019-03-03T01:46:54.971Z,24.30
2019-03-03T01:49:21.266Z,21.33
2019-03-03T01:51:47.443Z,24.07
2019-03-03T01:54:13.658Z,23.30
2019-03-03T01:56:39.884Z,22.87
2019-03-03T01:59:08.272Z,22.50
2019-03-03T02:01:34.347Z,23.70
2019-03-03T02:04:07.274Z,25.47
2019-03-03T02:06:36.801Z,22.20
2019-03-03T02:09:06.947Z,21.17
2019-03-03T02:11:33.755Z,20.80
2019-03-03T02:14:00.075Z,22.43
2019-03-03T02:16:26.227Z,20.87
2019-03-03T02:18:52.576Z,26.10
2019-03-03T02:21:18.759Z,17.17
2019-03-03T02:23:45.043Z,21.97
2019-03-03T02:26:14.494Z,20.57
2019-03-03T02:28:40.730Z,21.70
2019-03-03T02:31:07.226Z,23.33
2019-03-03T02:33:33.303Z,21.63
2019-03-03T02:35:59.655Z,21.67
2019-03-03T02:38:25.839Z,17.90
2019-03-03T02:40:52.010Z,17.03
2019-03-03T02:43:18.214Z,18.90
2019-03-03T02:45:44.426Z,17.57
2019-03-03T02:48:10.525Z,17.87
2019-03-03T02:50:37.423Z,18.17
2019-03-03T02:53:04.856Z,19.73
2019-03-03T02:55:30.990Z,18.63
2019-03-03T02:57:57.335Z,15.13
2019-03-03T03:00:23.797Z,15.53
2019-03-03T03:02:51.341Z,16.63
2019-03-03T03:05:24.098Z,17.30
2019-03-03T03:07:55.132Z,15.17
2019-03-03T03:10:26.004Z,16.77
2019-03-03T03:12:57.042Z,20.10
2019-03-03T03:15:30.847Z,18.10
2019-03-03T03:17:58.983Z,19.23
2019-03-03T03:20:33.009Z,18.63
2019-03-03T03:23:06.811Z,15.40
2019-03-03T03:25:34.816Z,18.40
2019-03-03T03:28:19.777Z,18.60
2019-03-03T03:30:48.900Z,18.20
2019-03-03T03:33:17.009Z,20.07
2019-03-03T03:35:45.129Z,19.33
2019-03-03T03:38:16.105Z,17.73
2019-03-03T03:40:44.346Z,16.00
2019-03-03T03:43:29.114Z,19.23
2019-03-03T03:46:09.372Z,12.13
2019-03-03T03:48:43.537Z,15.57
2019-03-03T03:51:26.939Z,21.17
2019-03-03T03:54:13.325Z,17.17
2019-03-03T03:56:47.263Z,17.57
2019-03-03T03:59:27.533Z,18.07
2019-03-03T04:01:56.047Z,17.43
2019-03-03T04:04:24.359Z,17.53
2019-03-03T04:06:52.566Z,15.90
2019-03-03T04:09:20.692Z,20.13
2019-03-03T04:11:48.734Z,15.47
2019-03-03T04:14:32.295Z,18.13
2019-03-03T04:17:00.476Z,17.17
2019-03-03T04:19:28.514Z,17.67
2019-03-03T04:21:59.330Z,17.50
2019-03-03T04:24:33.278Z,18.93
2019-03-03T04:27:04.327Z,15.23
2019-03-03T04:29:38.627Z,22.57
2019-03-03T04:32:09.367Z,17.00
2019-03-03T04:34:37.406Z,21.40
2019-03-03T04:37:21.919Z,21.23
2019-03-03T04:39:55.687Z,18.93
2019-03-03T04:42:38.756Z,20.17
2019-03-03T04:45:13.479Z,18.93
2019-03-03T04:47:47.508Z,20.97
2019-03-03T04:50:32.318Z,14.37
2019-03-03T04:53:09.511Z,19.53
2019-03-03T04:55:54.576Z,21.43
2019-03-03T04:58:22.799Z,19.90
2019-03-03T05:00:53.626Z,17.33
2019-03-03T05:03:36.984Z,21.70
2019-03-03T05:06:05.175Z,19.47
2019-03-03T05:08:33.256Z,16.47
2019-03-03T05:11:04.008Z,17.90
2019-03-03T05:13:32.023Z,17.40
2019-03-03T05:16:16.705Z,23.17
2019-03-03T05:18:44.801Z,21.03
2019-03-03T05:21:11.010Z,18.40
2019-03-03T05:23:37.337Z,19.50
2019-03-03T05:26:03.664Z,18.27
2019-03-03T05:28:30.009Z,23.90
2019-03-03T05:30:56.325Z,16.13
2019-03-03T05:33:23.522Z,19.43
2019-03-03T05:35:49.736Z,19.37
2019-03-03T05:38:15.940Z,22.13
2019-03-03T05:40:42.287Z,21.83
2019-03-03T05:43:08.397Z,22.60
2019-03-03T05:45:34.622Z,19.03
2019-03-03T05:48:00.746Z,21.87
2019-03-03T05:50:26.869Z,21.87
2019-03-03T05:52:53.197Z,19.20
2019-03-03T05:55:19.427Z,17.23
2019-03-03T05:57:45.542Z,18.83
2019-03-03T06:00:12.959Z,24.00
2019-03-03T06:02:39.267Z,23.40
2019-03-03T06:05:05.676Z,20.40
2019-03-03T06:07:32.010Z,25.27
2019-03-03T06:09:58.142Z,23.10
2019-03-03T06:12:24.412Z,19.73
2019-03-03T06:14:51.626Z,20.47
2019-03-03T06:17:17.958Z,18.73
2019-03-03T06:19:44.405Z,18.47
2019-03-03T06:22:10.517Z,20.30
2019-03-03T06:24:36.749Z,22.30
2019-03-03T06:27:03.078Z,21.27
2019-03-03T06:29:29.397Z,19.37
2019-03-03T06:31:55.470Z,18.47
2019-03-03T06:34:21.823Z,20.70
2019-03-03T06:36:48.110Z,22.67
2019-03-03T06:39:14.302Z,22.83
2019-03-03T06:41:40.522Z,18.83
2019-03-03T06:44:06.736Z,27.43
2019-03-03T06:46:32.928Z,24.97
2019-03-03T06:48:59.267Z,18.97
2019-03-03T06:51:25.459Z,17.50
2019-03-03T06:53:52.412Z,20.43
2019-03-03T06:56:18.610Z,24.57
2019-03-03T06:58:44.841Z,24.30
2019-03-03T07:01:11.039Z,23.97
2019-03-03T07:03:37.239Z,22.90
2019-03-03T07:06:03.459Z,23.80
2019-03-03T07:08:29.758Z,24.50
2019-03-03T07:10:56.093Z,21.70
2019-03-03T07:13:22.332Z,19.17
2019-03-03T07:15:48.455Z,22.63
2019-03-03T07:18:14.572Z,20.33
2019-03-03T07:20:41.061Z,29.83
2019-03-03T07:23:07.184Z,20.70
2019-03-03T07:25:33.402Z,23.27
2019-03-03T07:27:59.537Z,25.50
2019-03-03T07:30:25.755Z,21.43
2019-03-03T07:33:06.014Z,26.20
2019-03-03T07:35:32.199Z,25.20
2019-03-03T07:37:58.465Z,23.57
2019-03-03T07:40:24.773Z,25.60
2019-03-03T07:42:50.893Z,25.13
2019-03-03T07:45:17.000Z,27.30
2019-03-03T07:47:43.218Z,24.50
2019-03-03T07:50:10.466Z,26.67
2019-03-03T07:52:36.733Z,26.53
2019-03-03T07:55:05.726Z,22.47
2019-03-03T07:57:32.025Z,26.23
2019-03-03T07:59:58.271Z,25.60
2019-03-03T08:02:24.502Z,28.80
2019-03-03T08:04:50.865Z,24.10
2019-03-03T08:07:17.179Z,27.30
2019-03-03T08:09:43.444Z,24.33
2019-03-03T08:12:09.666Z,26.53
2019-03-03T08:14:35.814Z,26.93
2019-03-03T08:17:02.121Z,28.00
2019-03-03T08:19:28.425Z,27.40
2019-03-03T08:21:54.528Z,26.37
2019-03-03T08:24:22.885Z,29.17
2019-03-03T08:26:49.150Z,28.47
2019-03-03T08:29:15.265Z,31.53
2019-03-03T08:31:41.534Z,23.70
2019-03-03T08:34:07.855Z,25.53
2019-03-03T08:36:34.099Z,27.27
2019-03-03T08:39:00.313Z,23.40
2019-03-03T08:41:28.513Z,28.97
2019-03-03T08:43:56.826Z,30.63
2019-03-03T08:46:24.956Z,27.47
2019-03-03T08:49:02.255Z,28.97
2019-03-03T08:51:36.473Z,22.27
2019-03-03T08:54:21.199Z,30.37
2019-03-03T08:56:52.967Z,23.30
2019-03-03T08:59:24.281Z,22.83
2019-03-03T09:02:04.364Z,26.47
2019-03-03T09:04:32.396Z,23.10
2019-03-03T09:07:00.563Z,25.43
2019-03-03T09:09:28.700Z,29.40
2019-03-03T09:12:11.887Z,28.67
2019-03-03T09:14:42.929Z,28.63
2019-03-03T09:17:26.030Z,26.73
2019-03-03T09:19:57.301Z,24.50
2019-03-03T09:22:28.339Z,28.73
2019-03-03T09:25:02.359Z,19.40
2019-03-03T09:27:47.477Z,25.93
2019-03-03T09:30:30.821Z,22.50
2019-03-03T09:33:00.050Z,30.13
2019-03-03T09:35:46.069Z,24.70
2019-03-03T09:38:16.924Z,21.80
2019-03-03T09:40:50.905Z,24.33
2019-03-03T09:43:18.992Z,23.20
2019-03-03T09:45:53.063Z,26.43
2019-03-03T09:48:29.903Z,18.93
2019-03-03T09:51:00.661Z,20.43
2019-03-03T09:53:34.856Z,23.30
2019-03-03T09:56:08.695Z,22.23
2019-03-03T09:58:39.693Z,25.97
2019-03-03T10:01:07.886Z,20.53
2019-03-03T10:03:38.652Z,21.77
2019-03-03T10:06:12.777Z,19.37
2019-03-03T10:08:40.857Z,23.83
2019-03-03T10:11:24.272Z,24.47
2019-03-03T10:13:52.572Z,22.33
2019-03-03T10:16:29.878Z,20.17
2019-03-03T10:19:06.960Z,22.60
2019-03-03T10:21:31.063Z,22.97
2019-03-03T10:24:08.367Z,19.60
2019-03-03T10:26:54.745Z,18.60
2019-03-03T10:29:35.144Z,16.83
2019-03-03T10:32:20.270Z,17.87
2019-03-03T10:34:57.478Z,15.47
2019-03-03T10:37:42.391Z,15.37
2019-03-03T10:40:17.609Z,20.37
2019-03-03T10:42:48.678Z,15.93
2019-03-03T10:45:23.416Z,15.00
2019-03-03T10:47:57.775Z,13.47
2019-03-03T10:50:25.965Z,14.47
2019-03-03T10:52:57.153Z,12.70
2019-03-03T10:55:40.321Z,16.87
2019-03-03T10:58:11.481Z,13.43
2019-03-03T11:00:42.566Z,13.97
2019-03-03T11:03:16.682Z,14.17
2019-03-03T11:06:02.639Z,14.20
2019-03-03T11:08:36.863Z,15.30
2019-03-03T11:11:05.656Z,13.60
2019-03-03T11:13:33.871Z,13.87
2019-03-03T11:16:18.927Z,13.20
2019-03-03T11:18:55.958Z,14.07
2019-03-03T11:21:20.306Z,12.77
2019-03-03T11:23:48.345Z,14.00
2019-03-03T11:26:19.652Z,11.53
2019-03-03T11:29:04.955Z,11.90
2019-03-03T11:31:36.103Z,10.97
2019-03-03T11:34:04.592Z,12.20
2019-03-03T11:36:32.851Z,13.43
2019-03-03T11:39:04.129Z,11.40
2019-03-03T11:41:40.348Z,13.57
2019-03-03T11:44:17.538Z,10.50
2019-03-03T11:46:54.943Z,12.70
2019-03-03T11:49:41.488Z,13.50
2019-03-03T11:52:09.796Z,14.57
2019-03-03T11:57:21.961Z,12.27
2019-03-03T11:59:54.189Z,12.63
2019-03-03T12:02:22.319Z,13.30
2019-03-03T12:04:50.496Z,16.53
2019-03-03T12:07:36.860Z,15.40
2019-03-03T12:10:10.370Z,14.80
2019-03-03T12:12:41.267Z,14.07
2019-03-03T12:15:25.793Z,15.80
2019-03-03T12:18:02.909Z,16.43
2019-03-03T12:20:47.834Z,14.37
2019-03-03T12:23:17.201Z,15.60
2019-03-03T12:26:01.916Z,13.53
2019-03-03T12:28:41.829Z,14.37
2019-03-03T12:31:18.802Z,13.93
2019-03-03T12:33:47.930Z,13.07
2019-03-03T12:36:31.313Z,14.20
2019-03-03T12:39:02.073Z,14.40
2019-03-03T12:41:32.118Z,12.37
2019-03-03T12:44:16.460Z,14.03
2019-03-03T12:46:47.647Z,15.17
2019-03-03T12:49:32.459Z,16.03
2019-03-03T12:52:12.837Z,14.30
2019-03-03T12:54:50.101Z,13.83
2019-03-03T12:57:34.862Z,13.97
2019-03-03T13:00:03.250Z,14.43
2019-03-03T13:02:48.486Z,13.97
2019-03-03T13:05:19.500Z,13.00
2019-03-03T13:07:47.665Z,13.63
2019-03-03T13:10:18.658Z,12.27
2019-03-03T13:12:58.957Z,13.00
2019-03-03T13:15:43.759Z,14.23
2019-03-03T13:18:28.762Z,13.17
2019-03-03T13:20:59.887Z,12.27
2019-03-03T13:23:33.902Z,11.67
2019-03-03T13:26:20.140Z,12.50
2019-03-03T13:29:06.646Z,11.47
2019-03-03T13:31:40.820Z,11.83
2019-03-03T13:34:27.207Z,10.83
2019-03-03T13:36:55.348Z,11.50
2019-03-03T13:39:41.582Z,13.20
2019-03-03T13:42:10.694Z,12.17
2019-03-03T13:44:37.156Z,12.30
2019-03-03T13:47:03.534Z,12.03
2019-03-03T13:49:29.910Z,12.57
2019-03-03T13:51:56.272Z,11.77
2019-03-03T13:54:22.715Z,11.73
2019-03-03T13:56:48.997Z,14.80
2019-03-03T13:59:15.366Z,12.70
2019-03-03T14:01:43.414Z,13.27
2019-03-03T14:04:09.864Z,13.63
2019-03-03T14:06:36.297Z,13.27
2019-03-03T14:09:05.598Z,13.73
2019-03-03T14:11:32.669Z,14.20
2019-03-03T14:13:58.919Z,13.67
2019-03-03T14:16:25.293Z,14.47
2019-03-03T14:18:51.708Z,15.23
2019-03-03T14:21:18.253Z,13.93
2019-03-03T14:23:44.604Z,15.57
2019-03-03T14:26:10.861Z,13.40
2019-03-03T14:28:37.109Z,15.57
2019-03-03T14:31:03.387Z,14.03
2019-03-03T14:33:29.548Z,16.53
2019-03-03T14:35:55.712Z,13.00
2019-03-03T14:38:22.131Z,14.10
2019-03-03T14:40:48.590Z,16.30
2019-03-03T14:43:14.923Z,16.93
2019-03-03T14:45:41.515Z,15.23
2019-03-03T14:48:07.857Z,15.73
2019-03-03T14:50:34.172Z,14.43
2019-03-03T14:53:00.637Z,15.37
2019-03-03T14:55:26.751Z,15.63
2019-03-03T14:57:53.038Z,14.97
2019-03-03T15:00:30.636Z,15.93
2019-03-03T15:02:58.793Z,16.43
2019-03-03T15:05:25.194Z,14.53
2019-03-03T15:07:51.745Z,14.80
2019-03-03T15:10:18.081Z,14.90
2019-03-03T15:12:44.399Z,17.00
2019-03-03T15:15:18.927Z,16.70
2019-03-03T15:17:45.383Z,15.37
2019-03-03T15:20:11.714Z,15.63
2019-03-03T15:22:38.163Z,16.93
2019-03-03T15:25:07.483Z,18.13
2019-03-03T15:27:33.882Z,19.43
2019-03-03T15:30:00.403Z,17.70
2019-03-03T15:32:26.887Z,17.33
2019-03-03T15:34:53.282Z,16.77
2019-03-03T15:37:19.740Z,18.03
2019-03-03T15:39:46.057Z,20.10
2019-03-03T15:42:12.446Z,17.27
2019-03-03T15:44:38.702Z,17.27
2019-03-03T15:47:05.110Z,19.93
2019-03-03T15:49:31.259Z,18.00
2019-03-03T15:51:57.621Z,20.73
2019-03-03T15:54:24.212Z,20.33
2019-03-03T15:56:50.574Z,19.83
2019-03-03T15:59:17.011Z,19.70
2019-03-03T16:01:43.717Z,24.17
2019-03-03T16:04:10.278Z,18.80
2019-03-03T16:06:36.612Z,17.93
2019-03-03T16:09:05.112Z,18.37
2019-03-03T16:11:33.202Z,20.90
2019-03-03T16:13:59.339Z,19.40
2019-03-03T16:16:25.564Z,23.50
2019-03-03T16:18:52.237Z,20.67
2019-03-03T16:21:18.599Z,23.60
2019-03-03T16:23:44.908Z,18.97
2019-03-03T16:26:11.382Z,19.83
2019-03-03T16:28:37.509Z,20.50
2019-03-03T16:31:03.828Z,18.80
2019-03-03T16:33:30.061Z,21.50
2019-03-03T16:35:56.562Z,19.93
2019-03-03T16:38:22.935Z,21.37
2019-03-03T16:40:49.274Z,18.77
2019-03-03T16:43:15.487Z,17.67
2019-03-03T16:45:41.736Z,18.70
2019-03-03T16:48:07.829Z,17.77
2019-03-03T16:50:34.188Z,16.07
2019-03-03T16:53:00.494Z,18.17
2019-03-03T16:55:26.862Z,17.17
2019-03-03T16:57:53.187Z,19.47
2019-03-03T17:00:21.034Z,18.07
2019-03-03T17:02:47.434Z,18.13
2019-03-03T17:05:15.793Z,19.40
2019-03-03T17:07:42.148Z,17.70
2019-03-03T17:10:09.386Z,18.37
2019-03-03T17:12:35.910Z,27.57
2019-03-03T17:15:03.416Z,17.83
2019-03-03T17:17:30.722Z,18.27
2019-03-03T17:19:56.921Z,18.53
2019-03-03T17:22:23.079Z,21.40
2019-03-03T17:24:49.444Z,22.50
2019-03-03T17:27:15.697Z,18.70
2019-03-03T17:29:42.086Z,22.10
2019-03-03T17:32:08.402Z,19.03
2019-03-03T17:34:34.718Z,19.07
2019-03-03T17:37:01.097Z,20.83
2019-03-03T17:39:27.397Z,16.40
2019-03-03T17:41:53.823Z,17.80
2019-03-03T17:44:20.098Z,19.53
2019-03-03T17:46:46.317Z,19.37
2019-03-03T17:49:12.642Z,21.20
2019-03-03T17:51:40.066Z,18.03
2019-03-03T17:54:06.399Z,21.43
2019-03-03T17:56:33.106Z,18.27
2019-03-03T17:58:59.358Z,20.77
2019-03-03T18:01:25.714Z,17.70
2019-03-03T18:03:52.221Z,18.77
2019-03-03T18:06:18.596Z,16.73
2019-03-03T18:08:44.872Z,18.97
2019-03-03T18:11:11.324Z,20.63
2019-03-03T18:13:37.650Z,23.37
2019-03-03T18:16:04.034Z,17.57
2019-03-03T18:18:30.382Z,19.27
2019-03-03T18:20:56.714Z,17.43
2019-03-03T18:23:23.043Z,21.57
2019-03-03T18:25:49.262Z,17.27
2019-03-03T18:28:15.568Z,20.27
2019-03-03T18:30:41.916Z,18.20
2019-03-03T18:33:08.403Z,19.37
2019-03-03T18:35:34.743Z,16.60
2019-03-03T18:38:01.123Z,16.70
2019-03-03T18:40:27.706Z,17.10
2019-03-03T18:42:54.236Z,16.93
2019-03-03T18:45:21.662Z,20.23
2019-03-03T18:47:48.219Z,17.53
2019-03-03T18:50:16.221Z,21.70
2019-03-03T18:52:42.667Z,16.63
2019-03-03T18:55:10.094Z,17.37
2019-03-03T18:57:36.635Z,18.87
2019-03-03T19:00:06.711Z,19.37
2019-03-03T19:02:33.151Z,18.70
2019-03-03T19:05:00.512Z,18.43
2019-03-03T19:07:26.995Z,17.07
2019-03-03T19:09:53.306Z,17.93
2019-03-03T19:12:19.928Z,20.80
2019-03-03T19:14:46.243Z,19.83
2019-03-03T19:17:12.513Z,18.43
2019-03-03T19:19:38.942Z,23.50
2019-03-03T19:22:05.379Z,20.37
2019-03-03T19:24:31.969Z,21.17
2019-03-03T19:26:59.449Z,22.67
2019-03-03T19:29:25.937Z,21.10
2019-03-03T19:31:52.294Z,23.83
2019-03-03T19:34:18.666Z,19.63
2019-03-03T19:36:45.870Z,22.07
2019-03-03T19:39:12.106Z,21.80
2019-03-03T19:41:40.210Z,20.07
2019-03-03T19:44:06.602Z,21.67
2019-03-03T19:46:32.972Z,22.57
2019-03-03T19:48:59.451Z,22.73
2019-03-03T19:51:25.716Z,20.70
2019-03-03T19:53:52.281Z,20.03
2019-03-03T19:56:18.661Z,19.40
2019-03-03T19:58:44.950Z,20.83
2019-03-03T20:01:11.429Z,24.20
2019-03-03T20:03:37.695Z,15.67
2019-03-03T20:06:04.162Z,21.97
2019-03-03T20:08:30.513Z,25.53
2019-03-03T20:10:56.997Z,21.80
2019-03-03T20:13:23.474Z,18.40
2019-03-03T20:15:49.916Z,21.20
2019-03-03T20:18:16.186Z,22.37
2019-03-03T20:20:42.663Z,20.17
2019-03-03T20:23:09.025Z,20.60
2019-03-03T20:25:35.483Z,20.73
2019-03-03T20:28:02.252Z,20.07
2019-03-03T20:30:28.780Z,23.10
2019-03-03T20:32:55.355Z,18.20
2019-03-03T20:35:21.848Z,20.27
2019-03-03T20:37:48.350Z,18.83
2019-03-03T20:40:26.020Z,22.53
2019-03-03T20:42:53.413Z,19.00
2019-03-03T20:45:22.736Z,21.00
2019-03-03T20:47:48.965Z,23.40
2019-03-03T20:50:18.135Z,25.20
2019-03-03T20:52:44.466Z,20.73
2019-03-03T20:55:13.016Z,22.23
2019-03-03T20:57:39.506Z,20.43
2019-03-03T21:00:13.633Z,20.03
2019-03-03T21:02:39.970Z,20.97
2019-03-03T21:05:07.549Z,19.63
2019-03-03T21:07:34.011Z,20.73
2019-03-03T21:10:00.403Z,21.77
2019-03-03T21:12:27.998Z,17.33
2019-03-03T21:14:54.202Z,17.70
2019-03-03T21:17:20.531Z,16.27
2019-03-03T21:19:46.867Z,22.20
2019-03-03T21:22:13.116Z,18.67
2019-03-03T21:24:39.242Z,20.67
2019-03-03T21:27:05.479Z,18.17
2019-03-03T21:29:31.606Z,16.67
2019-03-03T21:31:57.960Z,13.70
2019-03-03T21:34:24.383Z,18.67
2019-03-03T21:36:50.648Z,16.13
2019-03-03T21:39:16.839Z,17.60
2019-03-03T21:41:43.327Z,18.57
2019-03-03T21:44:09.603Z,19.53
2019-03-03T21:46:35.915Z,16.40
2019-03-03T21:49:02.385Z,17.63
2019-03-03T21:51:29.625Z,15.07
2019-03-03T21:53:55.828Z,18.43
2019-03-03T21:56:22.202Z,19.53
2019-03-03T21:58:48.535Z,17.70
2019-03-03T22:01:14.885Z,17.03
2019-03-03T22:03:41.155Z,15.30
2019-03-03T22:06:07.591Z,16.47
2019-03-03T22:08:34.041Z,18.30
2019-03-03T22:11:00.367Z,14.53
2019-03-03T22:13:26.718Z,15.37
2019-03-03T22:15:53.050Z,14.37
2019-03-03T22:18:19.287Z,15.20
2019-03-03T22:20:45.725Z,17.37
2019-03-03T22:23:13.077Z,14.80
2019-03-03T22:25:39.418Z,16.70
2019-03-03T22:28:05.650Z,16.30
2019-03-03T22:30:31.793Z,14.27
2019-03-03T22:32:58.154Z,14.70
2019-03-03T22:35:24.410Z,15.87
2019-03-03T22:37:51.041Z,20.17
2019-03-03T22:40:18.905Z,17.83
2019-03-03T22:42:47.942Z,15.60
2019-03-03T22:45:15.373Z,18.50
2019-03-03T22:47:41.598Z,16.37
2019-03-03T22:50:10.181Z,15.27
2019-03-03T22:52:36.334Z,16.57
2019-03-03T22:55:11.879Z,15.07
2019-03-03T22:57:38.180Z,13.93
2019-03-03T23:00:40.094Z,16.10
2019-03-03T23:03:08.456Z,14.50
2019-03-03T23:06:08.920Z,15.53
2019-03-03T23:08:53.989Z,12.63
2019-03-03T23:11:24.030Z,14.63
2019-03-03T23:13:56.716Z,15.27
2019-03-03T23:16:36.321Z,12.67
2019-03-03T23:19:45.815Z,12.73
2019-03-03T23:22:29.052Z,12.90
2019-03-03T23:25:13.666Z,16.90
2019-03-03T23:27:40.483Z,9.90
2019-03-03T23:30:08.565Z,15.27
2019-03-03T23:32:34.765Z,13.73
2019-03-03T23:35:08.388Z,13.10
2019-03-03T23:37:34.706Z,13.17
2019-03-03T23:40:05.465Z,11.83
2019-03-03T23:42:34.846Z,13.77
2019-03-03T23:45:06.479Z,12.50
2019-03-03T23:47:34.622Z,12.47
2019-03-03T23:50:06.069Z,11.97
2019-03-03T23:52:34.273Z,14.03
2019-03-03T23:55:05.687Z,13.93
2019-03-03T23:57:31.987Z,11.97
2019-03-03T23:59:58.202Z,11.93
